sensor_id;sensor_type;location;lat;lon;timestamp;P1;durP1;ratioP1;P2;durP2;ratioP2
30080;SDS011;16902;50.816;12.828;2024-02-21T00:00:36;5.40;;;2.22;;
30080;SDS011;16902;50.816;12.828;2024-02-21T00:05:39;2.90;;;2.67;;
30080;SDS011;16902;50.816;12.828;2024-02-21T00:10:41;2.25;;;2.13;;
30080;SDS011;16902;50.816;12.828;2024-02-21T00:15:43;2.45;;;2.35;;
30080;SDS011;16902;50.816;12.828;2024-02-21T00:20:45;2.92;;;2.72;;
30080;SDS011;16902;50.816;12.828;2024-02-21T00:25:47;3.17;;;2.88;;
30080;SDS011;16902;50.816;12.828;2024-02-21T00:30:49;2.70;;;2.55;;
30080;SDS011;16902;50.816;12.828;2024-02-21T00:35:52;2.50;;;2.40;;
30080;SDS011;16902;50.816;12.828;2024-02-21T00:40:54;6.07;;;2.92;;
30080;SDS011;16902;50.816;12.828;2024-02-21T00:45:56;2.85;;;2.60;;
30080;SDS011;16902;50.816;12.828;2024-02-21T00:50:58;2.75;;;2.55;;
30080;SDS011;16902;50.816;12.828;2024-02-21T00:56:00;2.08;;;1.98;;
30080;SDS011;16902;50.816;12.828;2024-02-21T01:01:02;2.70;;;2.50;;
30080;SDS011;16902;50.816;12.828;2024-02-21T01:06:04;10.93;;;2.40;;
30080;SDS011;16902;50.816;12.828;2024-02-21T01:11:08;2.90;;;2.60;;
30080;SDS011;16902;50.816;12.828;2024-02-21T01:16:10;2.58;;;2.47;;
30080;SDS011;16902;50.816;12.828;2024-02-21T01:21:12;2.38;;;2.15;;
30080;SDS011;16902;50.816;12.828;2024-02-21T01:26:14;2.20;;;2.10;;
30080;SDS011;16902;50.816;12.828;2024-02-21T01:31:17;7.60;;;2.50;;
30080;SDS011;16902;50.816;12.828;2024-02-21T01:36:19;2.63;;;2.38;;
30080;SDS011;16902;50.816;12.828;2024-02-21T01:41:21;2.45;;;2.35;;
30080;SDS011;16902;50.816;12.828;2024-02-21T01:46:23;2.63;;;2.47;;
30080;SDS011;16902;50.816;12.828;2024-02-21T01:51:30;2.63;;;2.13;;
30080;SDS011;16902;50.816;12.828;2024-02-21T01:56:32;3.22;;;2.92;;
30080;SDS011;16902;50.816;12.828;2024-02-21T02:01:34;3.75;;;2.63;;
30080;SDS011;16902;50.816;12.828;2024-02-21T02:06:37;2.50;;;2.38;;
30080;SDS011;16902;50.816;12.828;2024-02-21T02:11:39;2.80;;;2.60;;
30080;SDS011;16902;50.816;12.828;2024-02-21T02:16:40;2.97;;;2.78;;
30080;SDS011;16902;50.816;12.828;2024-02-21T02:21:45;3.05;;;2.78;;
30080;SDS011;16902;50.816;12.828;2024-02-21T02:26:48;3.58;;;2.95;;
30080;SDS011;16902;50.816;12.828;2024-02-21T02:31:50;2.65;;;2.47;;
30080;SDS011;16902;50.816;12.828;2024-02-21T02:36:52;3.30;;;3.08;;
30080;SDS011;16902;50.816;12.828;2024-02-21T02:41:56;2.80;;;2.60;;
30080;SDS011;16902;50.816;12.828;2024-02-21T02:46:58;2.97;;;2.78;;
30080;SDS011;16902;50.816;12.828;2024-02-21T02:52:00;2.78;;;2.60;;
30080;SDS011;16902;50.816;12.828;2024-02-21T02:57:02;2.60;;;2.40;;
30080;SDS011;16902;50.816;12.828;2024-02-21T03:02:05;2.75;;;2.55;;
30080;SDS011;16902;50.816;12.828;2024-02-21T03:07:07;3.30;;;3.00;;
30080;SDS011;16902;50.816;12.828;2024-02-21T03:12:09;3.30;;;2.80;;
30080;SDS011;16902;50.816;12.828;2024-02-21T03:17:11;2.85;;;2.75;;
30080;SDS011;16902;50.816;12.828;2024-02-21T03:22:12;2.72;;;2.63;;
30080;SDS011;16902;50.816;12.828;2024-02-21T03:27:14;2.97;;;2.72;;
30080;SDS011;16902;50.816;12.828;2024-02-21T03:32:16;2.10;;;2.00;;
30080;SDS011;16902;50.816;12.828;2024-02-21T03:37:18;2.63;;;2.40;;
30080;SDS011;16902;50.816;12.828;2024-02-21T03:42:20;2.95;;;2.75;;
30080;SDS011;16902;50.816;12.828;2024-02-21T03:47:22;2.90;;;2.72;;
30080;SDS011;16902;50.816;12.828;2024-02-21T03:52:24;5.72;;;2.85;;
30080;SDS011;16902;50.816;12.828;2024-02-21T03:57:26;2.55;;;2.45;;
30080;SDS011;16902;50.816;12.828;2024-02-21T04:02:28;2.50;;;2.35;;
30080;SDS011;16902;50.816;12.828;2024-02-21T04:07:30;3.03;;;2.83;;
30080;SDS011;16902;50.816;12.828;2024-02-21T04:12:32;4.18;;;2.53;;
30080;SDS011;16902;50.816;12.828;2024-02-21T04:17:34;2.08;;;1.98;;
30080;SDS011;16902;50.816;12.828;2024-02-21T04:22:36;2.53;;;2.35;;
30080;SDS011;16902;50.816;12.828;2024-02-21T04:27:38;2.85;;;2.65;;
30080;SDS011;16902;50.816;12.828;2024-02-21T04:32:41;2.55;;;2.38;;
30080;SDS011;16902;50.816;12.828;2024-02-21T04:37:43;2.95;;;2.70;;
30080;SDS011;16902;50.816;12.828;2024-02-21T04:42:46;2.08;;;1.98;;
30080;SDS011;16902;50.816;12.828;2024-02-21T04:47:48;2.92;;;2.67;;
30080;SDS011;16902;50.816;12.828;2024-02-21T04:52:50;2.78;;;2.58;;
30080;SDS011;16902;50.816;12.828;2024-02-21T04:57:52;1.80;;;1.70;;
30080;SDS011;16902;50.816;12.828;2024-02-21T05:02:54;2.15;;;1.98;;
30080;SDS011;16902;50.816;12.828;2024-02-21T05:07:55;1.80;;;1.70;;
30080;SDS011;16902;50.816;12.828;2024-02-21T05:12:58;2.60;;;2.38;;
30080;SDS011;16902;50.816;12.828;2024-02-21T05:18:00;2.45;;;2.20;;
30080;SDS011;16902;50.816;12.828;2024-02-21T05:23:02;2.35;;;2.15;;
30080;SDS011;16902;50.816;12.828;2024-02-21T05:28:04;2.40;;;2.20;;
30080;SDS011;16902;50.816;12.828;2024-02-21T05:33:08;2.08;;;1.98;;
30080;SDS011;16902;50.816;12.828;2024-02-21T05:38:10;2.55;;;2.35;;
30080;SDS011;16902;50.816;12.828;2024-02-21T05:43:13;6.32;;;2.40;;
30080;SDS011;16902;50.816;12.828;2024-02-21T05:48:15;4.32;;;2.38;;
30080;SDS011;16902;50.816;12.828;2024-02-21T05:53:17;2.33;;;2.22;;
30080;SDS011;16902;50.816;12.828;2024-02-21T05:58:19;1.95;;;1.80;;
30080;SDS011;16902;50.816;12.828;2024-02-21T06:03:21;2.13;;;2.03;;
30080;SDS011;16902;50.816;12.828;2024-02-21T06:08:23;3.10;;;2.90;;
30080;SDS011;16902;50.816;12.828;2024-02-21T06:13:25;1.80;;;1.70;;
30080;SDS011;16902;50.816;12.828;2024-02-21T06:18:27;2.92;;;2.35;;
30080;SDS011;16902;50.816;12.828;2024-02-21T06:23:29;2.35;;;2.25;;
30080;SDS011;16902;50.816;12.828;2024-02-21T06:28:31;3.47;;;2.28;;
30080;SDS011;16902;50.816;12.828;2024-02-21T06:33:33;2.10;;;2.00;;
30080;SDS011;16902;50.816;12.828;2024-02-21T06:38:35;3.58;;;3.28;;
30080;SDS011;16902;50.816;12.828;2024-02-21T06:43:37;2.97;;;2.67;;
30080;SDS011;16902;50.816;12.828;2024-02-21T06:48:39;2.78;;;2.58;;
30080;SDS011;16902;50.816;12.828;2024-02-21T06:53:44;2.67;;;2.35;;
30080;SDS011;16902;50.816;12.828;2024-02-21T06:58:46;2.88;;;2.67;;
30080;SDS011;16902;50.816;12.828;2024-02-21T07:03:48;5.22;;;3.00;;
30080;SDS011;16902;50.816;12.828;2024-02-21T07:08:50;2.20;;;2.13;;
30080;SDS011;16902;50.816;12.828;2024-02-21T07:13:52;6.72;;;3.33;;
30080;SDS011;16902;50.816;12.828;2024-02-21T07:18:55;2.95;;;2.72;;
30080;SDS011;16902;50.816;12.828;2024-02-21T07:23:57;5.20;;;3.58;;
30080;SDS011;16902;50.816;12.828;2024-02-21T07:28:58;3.30;;;2.88;;
30080;SDS011;16902;50.816;12.828;2024-02-21T07:34:01;3.30;;;3.00;;
30080;SDS011;16902;50.816;12.828;2024-02-21T07:39:03;3.33;;;2.88;;
30080;SDS011;16902;50.816;12.828;2024-02-21T07:44:06;8.20;;;3.15;;
30080;SDS011;16902;50.816;12.828;2024-02-21T07:49:08;2.50;;;2.30;;
30080;SDS011;16902;50.816;12.828;2024-02-21T07:54:10;3.38;;;2.75;;
30080;SDS011;16902;50.816;12.828;2024-02-21T07:59:16;4.18;;;2.85;;
30080;SDS011;16902;50.816;12.828;2024-02-21T08:04:18;3.05;;;2.83;;
30080;SDS011;16902;50.816;12.828;2024-02-21T08:09:21;5.88;;;2.85;;
30080;SDS011;16902;50.816;12.828;2024-02-21T08:14:23;3.05;;;2.85;;
30080;SDS011;16902;50.816;12.828;2024-02-21T08:19:26;2.58;;;2.47;;
30080;SDS011;16902;50.816;12.828;2024-02-21T08:24:28;5.20;;;3.75;;
30080;SDS011;16902;50.816;12.828;2024-02-21T08:29:30;3.67;;;3.40;;
30080;SDS011;16902;50.816;12.828;2024-02-21T08:34:32;4.10;;;3.28;;
30080;SDS011;16902;50.816;12.828;2024-02-21T08:39:35;3.60;;;3.25;;
30080;SDS011;16902;50.816;12.828;2024-02-21T08:44:37;3.20;;;3.00;;
30080;SDS011;16902;50.816;12.828;2024-02-21T08:49:41;3.42;;;3.17;;
30080;SDS011;16902;50.816;12.828;2024-02-21T08:54:43;3.35;;;3.05;;
30080;SDS011;16902;50.816;12.828;2024-02-21T08:59:45;4.47;;;4.00;;
30080;SDS011;16902;50.816;12.828;2024-02-21T09:04:48;3.25;;;3.03;;
30080;SDS011;16902;50.816;12.828;2024-02-21T09:09:50;5.20;;;3.50;;
30080;SDS011;16902;50.816;12.828;2024-02-21T09:14:52;3.45;;;3.25;;
30080;SDS011;16902;50.816;12.828;2024-02-21T09:19:53;3.65;;;3.45;;
30080;SDS011;16902;50.816;12.828;2024-02-21T09:24:57;4.35;;;3.47;;
30080;SDS011;16902;50.816;12.828;2024-02-21T09:29:59;3.75;;;3.28;;
30080;SDS011;16902;50.816;12.828;2024-02-21T09:35:01;4.03;;;3.63;;
30080;SDS011;16902;50.816;12.828;2024-02-21T09:40:04;3.35;;;3.15;;
30080;SDS011;16902;50.816;12.828;2024-02-21T09:45:23;3.90;;;3.70;;
30080;SDS011;16902;50.816;12.828;2024-02-21T09:50:25;3.60;;;3.40;;
30080;SDS011;16902;50.816;12.828;2024-02-21T09:55:29;3.67;;;3.47;;
30080;SDS011;16902;50.816;12.828;2024-02-21T10:00:34;4.30;;;4.10;;
30080;SDS011;16902;50.816;12.828;2024-02-21T10:05:37;4.25;;;3.88;;
30080;SDS011;16902;50.816;12.828;2024-02-21T10:10:45;3.70;;;3.40;;
30080;SDS011;16902;50.816;12.828;2024-02-21T10:15:47;3.80;;;3.60;;
30080;SDS011;16902;50.816;12.828;2024-02-21T10:20:59;5.10;;;4.90;;
30080;SDS011;16902;50.816;12.828;2024-02-21T10:26:05;5.25;;;4.60;;
30080;SDS011;16902;50.816;12.828;2024-02-21T10:31:11;3.88;;;3.67;;
30080;SDS011;16902;50.816;12.828;2024-02-21T10:36:22;6.03;;;5.63;;
30080;SDS011;16902;50.816;12.828;2024-02-21T10:41:26;6.95;;;6.65;;
30080;SDS011;16902;50.816;12.828;2024-02-21T10:46:29;7.43;;;7.05;;
30080;SDS011;16902;50.816;12.828;2024-02-21T10:51:33;7.13;;;6.82;;
30080;SDS011;16902;50.816;12.828;2024-02-21T10:56:37;7.28;;;6.97;;
30080;SDS011;16902;50.816;12.828;2024-02-21T11:01:41;7.63;;;7.32;;
30080;SDS011;16902;50.816;12.828;2024-02-21T11:06:43;7.15;;;6.88;;
30080;SDS011;16902;50.816;12.828;2024-02-21T11:11:45;9.82;;;9.32;;
30080;SDS011;16902;50.816;12.828;2024-02-21T11:16:47;10.13;;;9.48;;
30080;SDS011;16902;50.816;12.828;2024-02-21T11:21:49;11.25;;;10.80;;
30080;SDS011;16902;50.816;12.828;2024-02-21T11:26:52;11.45;;;11.02;;
30080;SDS011;16902;50.816;12.828;2024-02-21T11:31:54;13.13;;;12.63;;
30080;SDS011;16902;50.816;12.828;2024-02-21T11:36:56;14.30;;;13.50;;
30080;SDS011;16902;50.816;12.828;2024-02-21T11:42:07;15.60;;;14.70;;
30080;SDS011;16902;50.816;12.828;2024-02-21T11:47:10;15.00;;;14.30;;
30080;SDS011;16902;50.816;12.828;2024-02-21T11:52:12;15.90;;;15.20;;
30080;SDS011;16902;50.816;12.828;2024-02-21T11:57:17;16.30;;;15.60;;
30080;SDS011;16902;50.816;12.828;2024-02-21T12:02:18;16.75;;;16.05;;
30080;SDS011;16902;50.816;12.828;2024-02-21T12:07:20;17.33;;;16.52;;
30080;SDS011;16902;50.816;12.828;2024-02-21T12:12:25;16.42;;;15.73;;
30080;SDS011;16902;50.816;12.828;2024-02-21T12:17:26;17.17;;;16.17;;
30080;SDS011;16902;50.816;12.828;2024-02-21T12:22:28;17.70;;;16.80;;
30080;SDS011;16902;50.816;12.828;2024-02-21T12:27:33;17.38;;;16.48;;
30080;SDS011;16902;50.816;12.828;2024-02-21T12:32:35;17.50;;;16.52;;
30080;SDS011;16902;50.816;12.828;2024-02-21T12:37:37;17.58;;;16.88;;
30080;SDS011;16902;50.816;12.828;2024-02-21T12:42:40;18.17;;;17.38;;
30080;SDS011;16902;50.816;12.828;2024-02-21T12:47:42;16.95;;;16.15;;
30080;SDS011;16902;50.816;12.828;2024-02-21T12:52:44;18.05;;;17.25;;
30080;SDS011;16902;50.816;12.828;2024-02-21T12:57:46;17.27;;;16.17;;
30080;SDS011;16902;50.816;12.828;2024-02-21T13:02:47;17.48;;;16.58;;
30080;SDS011;16902;50.816;12.828;2024-02-21T13:07:49;18.50;;;17.40;;
30080;SDS011;16902;50.816;12.828;2024-02-21T13:12:51;17.83;;;17.02;;
30080;SDS011;16902;50.816;12.828;2024-02-21T13:17:56;18.23;;;17.33;;
30080;SDS011;16902;50.816;12.828;2024-02-21T13:23:01;18.63;;;17.83;;
30080;SDS011;16902;50.816;12.828;2024-02-21T13:28:04;18.30;;;17.45;;
30080;SDS011;16902;50.816;12.828;2024-02-21T13:33:06;18.90;;;17.83;;
30080;SDS011;16902;50.816;12.828;2024-02-21T13:38:08;18.13;;;17.33;;
30080;SDS011;16902;50.816;12.828;2024-02-21T13:43:11;18.20;;;17.30;;
30080;SDS011;16902;50.816;12.828;2024-02-21T13:48:13;18.23;;;17.08;;
30080;SDS011;16902;50.816;12.828;2024-02-21T13:53:16;19.10;;;17.98;;
30080;SDS011;16902;50.816;12.828;2024-02-21T13:58:22;18.38;;;17.58;;
30080;SDS011;16902;50.816;12.828;2024-02-21T14:03:24;18.38;;;17.58;;
30080;SDS011;16902;50.816;12.828;2024-02-21T14:08:27;18.55;;;17.75;;
30080;SDS011;16902;50.816;12.828;2024-02-21T14:13:29;18.27;;;17.38;;
30080;SDS011;16902;50.816;12.828;2024-02-21T14:18:31;17.77;;;16.98;;
30080;SDS011;16902;50.816;12.828;2024-02-21T14:23:33;17.30;;;16.50;;
30080;SDS011;16902;50.816;12.828;2024-02-21T14:28:35;18.90;;;17.83;;
30080;SDS011;16902;50.816;12.828;2024-02-21T14:33:37;17.70;;;16.80;;
30080;SDS011;16902;50.816;12.828;2024-02-21T14:38:39;17.85;;;16.77;;
30080;SDS011;16902;50.816;12.828;2024-02-21T14:43:41;17.50;;;16.70;;
30080;SDS011;16902;50.816;12.828;2024-02-21T14:48:44;17.67;;;16.88;;
30080;SDS011;16902;50.816;12.828;2024-02-21T14:53:47;17.45;;;16.33;;
30080;SDS011;16902;50.816;12.828;2024-02-21T14:58:49;17.52;;;16.65;;
30080;SDS011;16902;50.816;12.828;2024-02-21T15:03:55;18.50;;;17.45;;
30080;SDS011;16902;50.816;12.828;2024-02-21T15:08:57;17.67;;;16.88;;
30080;SDS011;16902;50.816;12.828;2024-02-21T15:14:01;16.80;;;16.00;;
30080;SDS011;16902;50.816;12.828;2024-02-21T15:19:03;16.60;;;15.90;;
30080;SDS011;16902;50.816;12.828;2024-02-21T15:24:05;16.85;;;16.15;;
30080;SDS011;16902;50.816;12.828;2024-02-21T15:29:06;17.08;;;16.33;;
30080;SDS011;16902;50.816;12.828;2024-02-21T15:34:08;16.98;;;16.17;;
30080;SDS011;16902;50.816;12.828;2024-02-21T15:39:10;16.90;;;16.13;;
30080;SDS011;16902;50.816;12.828;2024-02-21T15:44:12;16.52;;;15.82;;
30080;SDS011;16902;50.816;12.828;2024-02-21T15:49:14;17.10;;;16.40;;
30080;SDS011;16902;50.816;12.828;2024-02-21T15:54:16;16.05;;;15.35;;
30080;SDS011;16902;50.816;12.828;2024-02-21T15:59:24;16.67;;;15.98;;
30080;SDS011;16902;50.816;12.828;2024-02-21T16:04:31;18.20;;;16.67;;
30080;SDS011;16902;50.816;12.828;2024-02-21T16:09:33;16.17;;;15.50;;
30080;SDS011;16902;50.816;12.828;2024-02-21T16:14:35;15.15;;;14.55;;
30080;SDS011;16902;50.816;12.828;2024-02-21T16:19:38;15.43;;;14.82;;
30080;SDS011;16902;50.816;12.828;2024-02-21T16:24:40;15.32;;;14.73;;
30080;SDS011;16902;50.816;12.828;2024-02-21T16:29:42;15.55;;;14.93;;
30080;SDS011;16902;50.816;12.828;2024-02-21T16:34:44;14.63;;;14.02;;
30080;SDS011;16902;50.816;12.828;2024-02-21T16:39:46;15.07;;;14.48;;
30080;SDS011;16902;50.816;12.828;2024-02-21T16:44:47;15.70;;;14.65;;
30080;SDS011;16902;50.816;12.828;2024-02-21T16:49:49;14.98;;;14.30;;
30080;SDS011;16902;50.816;12.828;2024-02-21T16:54:52;14.23;;;13.63;;
30080;SDS011;16902;50.816;12.828;2024-02-21T16:59:53;14.80;;;14.20;;
30080;SDS011;16902;50.816;12.828;2024-02-21T17:04:55;15.55;;;14.88;;
30080;SDS011;16902;50.816;12.828;2024-02-21T17:09:57;15.50;;;14.68;;
30080;SDS011;16902;50.816;12.828;2024-02-21T17:15:00;15.70;;;15.10;;
30080;SDS011;16902;50.816;12.828;2024-02-21T17:20:02;14.93;;;14.32;;
30080;SDS011;16902;50.816;12.828;2024-02-21T17:25:04;15.20;;;14.60;;
30080;SDS011;16902;50.816;12.828;2024-02-21T17:30:11;14.65;;;14.07;;
30080;SDS011;16902;50.816;12.828;2024-02-21T17:35:13;16.00;;;15.13;;
30080;SDS011;16902;50.816;12.828;2024-02-21T17:40:15;15.77;;;14.98;;
30080;SDS011;16902;50.816;12.828;2024-02-21T17:45:17;14.70;;;14.10;;
30080;SDS011;16902;50.816;12.828;2024-02-21T17:50:20;14.93;;;14.32;;
30080;SDS011;16902;50.816;12.828;2024-02-21T17:55:22;15.18;;;14.55;;
30080;SDS011;16902;50.816;12.828;2024-02-21T18:00:24;14.93;;;14.23;;
30080;SDS011;16902;50.816;12.828;2024-02-21T18:05:26;15.48;;;14.77;;
30080;SDS011;16902;50.816;12.828;2024-02-21T18:10:28;14.88;;;14.05;;
30080;SDS011;16902;50.816;12.828;2024-02-21T18:15:33;16.48;;;15.77;;
30080;SDS011;16902;50.816;12.828;2024-02-21T18:20:35;15.93;;;15.07;;
30080;SDS011;16902;50.816;12.828;2024-02-21T18:25:38;15.68;;;14.98;;
30080;SDS011;16902;50.816;12.828;2024-02-21T18:30:41;15.70;;;15.00;;
30080;SDS011;16902;50.816;12.828;2024-02-21T18:35:43;14.85;;;14.15;;
30080;SDS011;16902;50.816;12.828;2024-02-21T18:40:44;15.23;;;14.63;;
30080;SDS011;16902;50.816;12.828;2024-02-21T18:45:46;16.00;;;15.30;;
30080;SDS011;16902;50.816;12.828;2024-02-21T18:50:48;15.27;;;14.68;;
30080;SDS011;16902;50.816;12.828;2024-02-21T18:55:50;16.17;;;15.48;;
30080;SDS011;16902;50.816;12.828;2024-02-21T19:00:52;16.45;;;15.63;;
30080;SDS011;16902;50.816;12.828;2024-02-21T19:05:54;16.23;;;15.52;;
30080;SDS011;16902;50.816;12.828;2024-02-21T19:10:56;17.17;;;16.02;;
30080;SDS011;16902;50.816;12.828;2024-02-21T19:15:58;16.38;;;15.68;;
30080;SDS011;16902;50.816;12.828;2024-02-21T19:21:00;16.25;;;15.55;;
30080;SDS011;16902;50.816;12.828;2024-02-21T19:26:03;16.85;;;16.15;;
30080;SDS011;16902;50.816;12.828;2024-02-21T19:31:06;17.20;;;16.50;;
30080;SDS011;16902;50.816;12.828;2024-02-21T19:36:07;16.92;;;16.23;;
30080;SDS011;16902;50.816;12.828;2024-02-21T19:41:12;16.95;;;16.25;;
30080;SDS011;16902;50.816;12.828;2024-02-21T19:46:14;18.02;;;17.23;;
30080;SDS011;16902;50.816;12.828;2024-02-21T19:51:16;17.80;;;16.90;;
30080;SDS011;16902;50.816;12.828;2024-02-21T19:56:18;17.92;;;17.13;;
30080;SDS011;16902;50.816;12.828;2024-02-21T20:01:19;17.13;;;16.40;;
30080;SDS011;16902;50.816;12.828;2024-02-21T20:06:22;17.45;;;16.55;;
30080;SDS011;16902;50.816;12.828;2024-02-21T20:11:24;18.13;;;17.33;;
30080;SDS011;16902;50.816;12.828;2024-02-21T20:16:31;18.40;;;17.60;;
30080;SDS011;16902;50.816;12.828;2024-02-21T20:21:32;18.50;;;17.60;;
30080;SDS011;16902;50.816;12.828;2024-02-21T20:26:34;18.13;;;17.33;;
30080;SDS011;16902;50.816;12.828;2024-02-21T20:31:36;17.63;;;16.83;;
30080;SDS011;16902;50.816;12.828;2024-02-21T20:36:38;18.10;;;17.20;;
30080;SDS011;16902;50.816;12.828;2024-02-21T20:41:39;18.55;;;17.73;;
30080;SDS011;16902;50.816;12.828;2024-02-21T20:46:42;18.33;;;17.52;;
30080;SDS011;16902;50.816;12.828;2024-02-21T20:51:44;18.23;;;17.42;;
30080;SDS011;16902;50.816;12.828;2024-02-21T20:56:46;18.10;;;17.30;;
30080;SDS011;16902;50.816;12.828;2024-02-21T21:01:48;17.85;;;17.05;;
30080;SDS011;16902;50.816;12.828;2024-02-21T21:07:03;17.98;;;17.25;;
30080;SDS011;16902;50.816;12.828;2024-02-21T21:12:06;18.33;;;17.52;;
30080;SDS011;16902;50.816;12.828;2024-02-21T21:17:08;18.40;;;17.60;;
30080;SDS011;16902;50.816;12.828;2024-02-21T21:22:11;18.20;;;17.40;;
30080;SDS011;16902;50.816;12.828;2024-02-21T21:27:13;18.33;;;17.52;;
30080;SDS011;16902;50.816;12.828;2024-02-21T21:32:17;18.17;;;17.38;;
30080;SDS011;16902;50.816;12.828;2024-02-21T21:37:20;18.88;;;17.98;;
30080;SDS011;16902;50.816;12.828;2024-02-21T21:42:22;18.02;;;17.23;;
30080;SDS011;16902;50.816;12.828;2024-02-21T21:47:24;18.35;;;17.55;;
30080;SDS011;16902;50.816;12.828;2024-02-21T21:52:26;17.98;;;17.17;;
30080;SDS011;16902;50.816;12.828;2024-02-21T21:57:28;17.88;;;17.08;;
30080;SDS011;16902;50.816;12.828;2024-02-21T22:02:31;18.00;;;17.20;;
30080;SDS011;16902;50.816;12.828;2024-02-21T22:07:33;18.60;;;17.80;;
30080;SDS011;16902;50.816;12.828;2024-02-21T22:12:35;18.40;;;17.60;;
30080;SDS011;16902;50.816;12.828;2024-02-21T22:17:37;18.85;;;18.05;;
30080;SDS011;16902;50.816;12.828;2024-02-21T22:22:39;18.10;;;17.30;;
30080;SDS011;16902;50.816;12.828;2024-02-21T22:27:41;18.00;;;17.10;;
30080;SDS011;16902;50.816;12.828;2024-02-21T22:32:44;18.70;;;17.58;;
30080;SDS011;16902;50.816;12.828;2024-02-21T22:37:46;18.17;;;17.38;;
30080;SDS011;16902;50.816;12.828;2024-02-21T22:42:48;18.48;;;17.63;;
30080;SDS011;16902;50.816;12.828;2024-02-21T22:47:50;18.90;;;17.90;;
30080;SDS011;16902;50.816;12.828;2024-02-21T22:52:52;18.05;;;17.25;;
30080;SDS011;16902;50.816;12.828;2024-02-21T22:57:53;17.92;;;17.23;;
30080;SDS011;16902;50.816;12.828;2024-02-21T23:02:56;17.77;;;16.90;;
30080;SDS011;16902;50.816;12.828;2024-02-21T23:07:58;18.45;;;17.60;;
30080;SDS011;16902;50.816;12.828;2024-02-21T23:13:00;18.50;;;17.70;;
30080;SDS011;16902;50.816;12.828;2024-02-21T23:18:02;17.88;;;17.08;;
30080;SDS011;16902;50.816;12.828;2024-02-21T23:23:05;18.05;;;17.25;;
30080;SDS011;16902;50.816;12.828;2024-02-21T23:28:06;17.60;;;16.90;;
30080;SDS011;16902;50.816;12.828;2024-02-21T23:33:08;17.63;;;16.92;;
30080;SDS011;16902;50.816;12.828;2024-02-21T23:38:10;18.13;;;17.40;;
30080;SDS011;16902;50.816;12.828;2024-02-21T23:43:12;18.40;;;17.60;;
30080;SDS011;16902;50.816;12.828;2024-02-21T23:48:15;18.10;;;17.30;;
30080;SDS011;16902;50.816;12.828;2024-02-21T23:53:17;17.38;;;16.67;;
30080;SDS011;16902;50.816;12.828;2024-02-21T23:58:19;17.75;;;17.05;;
